Time;durP1;ratioP1;P1;durP2;ratioP2;P2;SDS_P1;SDS_P2;PMS_P1;PMS_P2;Temp;Humidity;BMP_temperature;BMP_pressure;BME280_temperature;BME280_humidity;BME280_pressure;Samples;Min_cycle;Max_cycle;Signal;HPM_P1;HPM_P2
2022/03/15 00:01:58;;;;;;;29.60;14.97;;;;;;;0.24;69.20;98506.91;5094550;28;20447;-40
2022/03/15 00:04:25;;;;;;;20.70;9.77;;;;;;;0.13;69.20;98491.28;5094652;28;20482;-41
2022/03/15 00:06:53;;;;;;;9.87;6.50;;;;;;;0.03;69.14;98488.63;5095301;28;20465;-41
2022/03/15 00:09:20;;;;;;;10.27;5.47;;;;;;;-0.01;68.76;98488.03;5094431;28;20443;-41
2022/03/15 00:11:47;;;;;;;7.20;6.40;;;;;;;0.02;68.20;98496.56;5094343;28;20442;-40
2022/03/15 00:14:15;;;;;;;12.03;7.30;;;;;;;-0.02;68.87;98502.06;5094278;28;20534;-40
2022/03/15 00:16:43;;;;;;;12.80;6.27;;;;;;;0.00;68.87;98491.50;5094214;28;20450;-39
2022/03/15 00:19:11;;;;;;;10.30;5.33;;;;;;;0.03;69.24;98493.03;5094196;28;20447;-39
2022/03/15 00:21:39;;;;;;;9.47;5.27;;;;;;;0.01;69.49;98489.72;5094165;28;20445;-39
2022/03/15 00:24:07;;;;;;;7.83;4.80;;;;;;;0.02;69.54;98486.94;5093862;28;20478;-40
2022/03/15 00:26:35;;;;;;;20.93;7.30;;;;;;;0.03;69.50;98490.41;5093547;28;20439;-40
2022/03/15 00:29:02;;;;;;;6.57;4.90;;;;;;;0.03;69.41;98482.56;5094116;28;20525;-39
2022/03/15 00:31:30;;;;;;;10.73;6.60;;;;;;;-0.01;68.75;98472.38;5094015;28;20443;-40
2022/03/15 00:33:57;;;;;;;13.30;5.70;;;;;;;-0.09;68.86;98463.53;5093922;28;20994;-41
2022/03/15 00:36:26;;;;;;;14.23;6.47;;;;;;;-0.05;69.43;98483.19;5093971;28;20439;-38
2022/03/15 00:38:53;;;;;;;19.47;5.60;;;;;;;-0.10;69.56;98467.91;5094202;28;20449;-40
2022/03/15 00:41:20;;;;;;;9.47;5.50;;;;;;;-0.10;69.71;98473.16;5093867;28;20439;-39
2022/03/15 00:43:48;;;;;;;8.60;4.73;;;;;;;-0.10;69.72;98472.31;5093788;28;20443;-40
2022/03/15 00:46:15;;;;;;;8.23;5.63;;;;;;;-0.14;70.19;98465.69;5093697;28;20467;-38
2022/03/15 00:48:42;;;;;;;14.20;5.60;;;;;;;-0.15;69.06;98464.88;5093760;28;20439;-38
2022/03/15 00:51:10;;;;;;;11.60;5.57;;;;;;;-0.12;68.63;98462.00;5093739;28;20447;-39
2022/03/15 00:53:38;;;;;;;13.67;5.77;;;;;;;-0.11;68.77;98471.47;5093687;28;20446;-40
2022/03/15 00:56:06;;;;;;;11.60;5.77;;;;;;;-0.14;69.21;98460.47;5093810;28;20951;-41
2022/03/15 00:58:33;;;;;;;15.20;7.03;;;;;;;-0.17;69.54;98453.72;5093746;28;21001;-40
2022/03/15 01:01:01;;;;;;;12.80;6.90;;;;;;;-0.15;70.10;98459.66;5093582;28;20439;-40
2022/03/15 01:03:28;;;;;;;8.43;6.83;;;;;;;-0.19;69.92;98442.59;5094176;28;20439;-38
2022/03/15 01:05:55;;;;;;;20.20;10.23;;;;;;;-0.15;70.04;98457.03;5093516;28;20986;-38
2022/03/15 01:08:22;;;;;;;22.67;10.57;;;;;;;-0.17;70.43;98456.34;5093778;28;20439;-40
2022/03/15 01:10:51;;;;;;;20.73;9.50;;;;;;;-0.20;70.38;98451.34;5093577;28;20534;-38
2022/03/15 01:13:18;;;;;;;18.30;9.17;;;;;;;-0.21;70.09;98460.97;5094540;28;20964;-38
2022/03/15 01:15:46;;;;;;;16.70;9.20;;;;;;;-0.24;69.86;98455.19;5093424;28;20447;-38
2022/03/15 01:18:14;;;;;;;16.90;10.10;;;;;;;-0.29;70.08;98442.50;5093456;28;20482;-38
2022/03/15 01:20:43;;;;;;;11.53;7.10;;;;;;;-0.28;70.37;98444.19;5093359;28;20836;-38
2022/03/15 01:23:10;;;;;;;8.33;5.97;;;;;;;-0.28;70.63;98443.34;5093378;28;20439;-38
2022/03/15 01:25:38;;;;;;;14.00;8.03;;;;;;;-0.32;70.64;98432.34;5093221;28;20831;-38
2022/03/15 01:28:07;;;;;;;20.27;9.50;;;;;;;-0.31;70.54;98423.53;5093639;28;20446;-38
2022/03/15 01:30:34;;;;;;;24.10;10.03;;;;;;;-0.50;70.52;98398.13;5093639;28;20441;-38
2022/03/15 01:33:02;;;;;;;16.80;8.17;;;;;;;-0.38;70.47;98421.59;5093633;28;20443;-38
2022/03/15 01:35:29;;;;;;;28.70;11.20;;;;;;;-0.40;70.53;98424.31;5093609;28;20439;-38
2022/03/15 01:37:56;;;;;;;29.10;11.30;;;;;;;-0.43;70.18;98428.00;5096960;28;20443;-38
2022/03/15 01:40:24;;;;;;;18.50;11.10;;;;;;;-0.45;70.09;98427.31;5097401;28;20455;-38
2022/03/15 01:42:51;;;;;;;22.50;12.13;;;;;;;-0.46;70.20;98427.41;5097311;28;20449;-39
2022/03/15 01:45:20;;;;;;;20.63;11.83;;;;;;;-0.47;70.81;98418.78;5096919;28;20535;-39
2022/03/15 01:47:47;;;;;;;18.67;10.23;;;;;;;-0.47;70.70;98429.22;5097201;28;20427;-38
2022/03/15 01:50:14;;;;;;;18.03;10.60;;;;;;;-0.47;70.89;98423.16;5097071;28;20566;-38
2022/03/15 01:52:41;;;;;;;23.60;11.07;;;;;;;-0.52;71.08;98415.69;5097090;28;20438;-38
2022/03/15 01:55:09;;;;;;;15.53;9.70;;;;;;;-0.49;70.93;98418.06;5097020;28;20477;-38
2022/03/15 01:57:36;;;;;;;15.70;7.67;;;;;;;-0.50;71.02;98428.63;5096956;28;20472;-38
2022/03/15 02:00:05;;;;;;;12.53;7.63;;;;;;;-0.53;70.36;98428.88;5096867;28;20539;-38
2022/03/15 02:02:34;;;;;;;20.70;9.20;;;;;;;-0.52;69.91;98427.91;5096888;28;20449;-38
2022/03/15 02:05:01;;;;;;;22.70;10.97;;;;;;;-0.53;69.57;98440.16;5096740;28;20487;-37
2022/03/15 02:07:28;;;;;;;27.43;10.50;;;;;;;-0.53;69.36;98434.94;5096811;28;20473;-37
2022/03/15 02:09:56;;;;;;;27.87;10.83;;;;;;;-0.54;69.04;98438.47;5096756;28;20439;-38
2022/03/15 02:12:23;;;;;;;18.73;9.43;;;;;;;-0.54;69.32;98443.69;5096985;28;20447;-38
2022/03/15 02:14:50;;;;;;;25.10;10.27;;;;;;;-0.52;69.50;98452.22;5096801;28;20442;-40
2022/03/15 02:17:17;;;;;;;10.93;7.73;;;;;;;-0.52;69.62;98452.22;5096566;28;20439;-40
2022/03/15 02:19:47;;;;;;;16.10;8.10;;;;;;;-0.51;69.74;98453.06;5096513;28;20443;-40
2022/03/15 02:22:15;;;;;;;10.90;6.20;;;;;;;-0.54;69.79;98454.13;5096560;28;20447;-39
2022/03/15 02:24:42;;;;;;;23.40;9.90;;;;;;;-0.60;69.90;98449.44;5096674;28;20483;-40
2022/03/15 02:27:10;;;;;;;24.53;8.57;;;;;;;-0.64;70.56;98468.91;5096725;28;20474;-38
2022/03/15 02:29:37;;;;;;;23.10;8.80;;;;;;;-0.63;70.77;98452.28;5096353;28;20443;-39
2022/03/15 02:32:05;;;;;;;19.17;9.20;;;;;;;-0.62;70.46;98456.56;5096310;28;20954;-39
2022/03/15 02:34:32;;;;;;;23.13;10.50;;;;;;;-0.63;70.43;98453.09;5096259;28;20439;-38
2022/03/15 02:37:00;;;;;;;17.87;8.20;;;;;;;-0.65;70.12;98457.63;5096227;28;20443;-40
2022/03/15 02:39:28;;;;;;;12.20;7.00;;;;;;;-0.75;70.78;98453.28;5096454;28;20454;-41
2022/03/15 02:41:56;;;;;;;10.57;6.10;;;;;;;-0.80;71.51;98452.81;5096074;28;20438;-41
2022/03/15 02:44:23;;;;;;;12.97;6.67;;;;;;;-0.80;71.63;98453.66;5096014;28;20442;-38
2022/03/15 02:46:51;;;;;;;14.27;8.00;;;;;;;-0.85;71.90;98446.19;5096707;28;20475;-38
2022/03/15 02:49:18;;;;;;;19.43;9.07;;;;;;;-0.81;71.59;98448.56;5095165;28;20443;-39
2022/03/15 02:51:45;;;;;;;18.23;9.53;;;;;;;-0.83;72.11;98449.50;5096229;28;20439;-39
2022/03/15 02:54:13;;;;;;;8.50;6.00;;;;;;;-0.86;72.53;98441.09;5095852;28;20450;-41
2022/03/15 02:56:43;;;;;;;24.73;11.90;;;;;;;-0.89;72.72;98434.34;5096111;28;20451;-39
2022/03/15 02:59:11;;;;;;;27.53;12.20;;;;;;;-1.02;72.83;98423.25;5096108;28;20563;-41
2022/03/15 03:01:38;;;;;;;32.67;13.40;;;;;;;-0.98;72.86;98422.06;5088507;28;20481;-43
2022/03/15 03:04:05;;;;;;;40.20;16.43;;;;;;;-0.98;73.10;98427.28;5094641;28;20443;-38
2022/03/15 03:06:32;;;;;;;35.20;16.27;;;;;;;-0.98;73.23;98429.88;5093770;28;20482;-39
2022/03/15 03:08:59;;;;;;;33.97;13.20;;;;;;;-0.99;73.10;98428.25;5095577;28;20798;-39
2022/03/15 03:11:27;;;;;;;20.47;10.23;;;;;;;-0.99;73.67;98425.63;5094921;28;20446;-38
2022/03/15 03:13:59;;;;;;;10.07;6.00;;;;;;;-1.06;73.73;98414.03;5095465;28;20450;-39
2022/03/15 03:16:27;;;;;;;13.20;6.83;;;;;;;-1.09;73.82;98409.06;5095735;28;20446;-38
2022/03/15 03:18:57;;;;;;;8.47;5.50;;;;;;;-1.14;73.48;98406.84;5095792;28;20862;-38
2022/03/15 03:21:26;;;;;;;9.47;5.93;;;;;;;-1.10;73.58;98415.22;5095382;28;20470;-39
2022/03/15 03:23:55;;;;;;;7.43;5.10;;;;;;;-1.06;74.17;98411.41;5095338;28;20493;-38
2022/03/15 03:26:23;;;;;;;4.87;4.23;;;;;;;-1.12;73.66;98402.31;5095222;28;20501;-39
2022/03/15 03:28:51;;;;;;;8.50;5.67;;;;;;;-1.07;73.29;98415.00;5095689;28;20450;-38
2022/03/15 03:31:20;;;;;;;9.20;5.30;;;;;;;-1.06;72.97;98414.84;5095557;28;20526;-41
2022/03/15 03:33:48;;;;;;;13.30;5.50;;;;;;;-1.06;72.62;98401.81;5096272;28;20443;-41
2022/03/15 03:36:15;;;;;;;8.67;4.80;;;;;;;-1.00;72.37;98405.72;5095189;28;21021;-38
2022/03/15 03:38:42;;;;;;;9.57;7.00;;;;;;;-1.09;72.48;98406.47;5095000;28;20446;-38
2022/03/15 03:41:09;;;;;;;107.30;33.27;;;;;;;-1.09;72.49;98401.25;5095359;28;20492;-38
2022/03/15 03:43:36;;;;;;;82.40;31.57;;;;;;;-1.10;72.74;98410.84;5094940;28;20450;-38
2022/03/15 03:46:04;;;;;;;43.13;15.73;;;;;;;-1.11;72.42;98410.97;5094537;28;20498;-38
2022/03/15 03:48:32;;;;;;;29.67;15.10;;;;;;;-1.13;72.80;98405.06;5094917;28;20452;-38
2022/03/15 03:51:00;;;;;;;30.23;15.17;;;;;;;-1.12;72.40;98407.53;5094790;28;20443;-38
2022/03/15 03:53:28;;;;;;;28.40;13.83;;;;;;;-1.24;72.60;98380.66;5094763;28;20449;-39
2022/03/15 03:55:55;;;;;;;28.10;10.30;;;;;;;-1.14;72.53;98399.00;5094716;28;20446;-38
2022/03/15 03:58:22;;;;;;;20.27;9.90;;;;;;;-1.16;71.95;98398.31;5094964;28;20466;-39
2022/03/15 04:00:50;;;;;;;29.07;10.83;;;;;;;-1.16;71.97;98405.28;5094832;28;20443;-38
2022/03/15 04:03:17;;;;;;;23.10;11.40;;;;;;;-1.15;72.11;98404.34;5095333;28;20444;-38
2022/03/15 04:05:48;;;;;;;24.20;10.00;;;;;;;-1.16;72.32;98416.56;5095623;28;20500;-40
2022/03/15 04:08:16;;;;;;;14.80;8.40;;;;;;;-1.15;72.61;98422.59;5094777;28;20440;-38
2022/03/15 04:10:45;;;;;;;28.57;14.20;;;;;;;-1.14;72.03;98419.03;5094504;28;20862;-38
2022/03/15 04:13:13;;;;;;;38.03;15.40;;;;;;;-1.14;72.25;98419.03;5094689;28;20443;-38
2022/03/15 04:15:40;;;;;;;55.53;19.70;;;;;;;-1.14;72.22;98416.41;5094880;28;20461;-40
2022/03/15 04:18:07;;;;;;;44.53;21.53;;;;;;;-1.15;72.64;98399.94;5094265;28;20919;-38
2022/03/15 04:20:35;;;;;;;34.00;17.80;;;;;;;-1.15;72.39;98391.31;5094169;28;20450;-39
2022/03/15 04:23:04;;;;;;;43.80;21.97;;;;;;;-1.18;72.60;98386.31;5094204;28;20504;-39
2022/03/15 04:25:32;;;;;;;36.67;16.93;;;;;;;-1.20;72.65;98399.50;5094047;28;21004;-39
2022/03/15 04:28:00;;;;;;;29.10;16.50;;;;;;;-1.34;72.50;98381.53;5094434;28;20455;-40
2022/03/15 04:30:28;;;;;;;39.83;17.80;;;;;;;-1.21;72.59;98407.44;5094047;28;20444;-38
2022/03/15 04:32:55;;;;;;;27.97;12.03;;;;;;;-1.27;72.59;98393.09;5094013;28;20937;-39
2022/03/15 04:35:22;;;;;;;20.30;9.40;;;;;;;-1.36;73.21;98393.84;5093983;28;20451;-38
2022/03/15 04:37:52;;;;;;;16.63;9.57;;;;;;;-1.46;73.47;98404.19;5094495;28;20447;-40
2022/03/15 04:40:20;;;;;;;18.40;9.70;;;;;;;-1.56;73.87;98408.44;5094201;28;20450;-38
2022/03/15 04:42:48;;;;;;;203.20;65.90;;;;;;;-1.57;74.04;98410.22;5094011;28;20446;-38
2022/03/15 04:45:15;;;;;;;190.83;55.13;;;;;;;-1.43;74.03;98403.94;5091411;28;20949;-40
2022/03/15 04:47:43;;;;;;;192.87;56.90;;;;;;;-1.11;73.52;98408.38;5084530;28;20448;-37
2022/03/15 04:50:11;;;;;;;192.80;63.97;;;;;;;-0.77;72.47;98411.69;5073464;28;20436;-39
2022/03/15 04:52:39;;;;;;;153.63;53.23;;;;;;;-0.36;71.32;98417.88;5074586;28;20454;-38
2022/03/15 04:55:07;;;;;;;164.50;53.30;;;;;;;0.09;70.06;98429.81;5073486;28;20928;-39
2022/03/15 04:57:36;;;;;;;117.80;46.47;;;;;;;0.49;68.68;98416.75;5073394;28;20444;-40
2022/03/15 05:00:09;;;;;;;66.10;30.70;;;;;;;0.99;67.28;98429.00;5073257;28;20452;-38
2022/03/15 05:02:36;;;;;;;85.00;31.43;;;;;;;1.42;65.56;98430.41;5073764;28;20432;-38
2022/03/15 05:05:04;;;;;;;90.93;34.17;;;;;;;1.86;64.57;98433.41;5073406;28;20451;-39
2022/03/15 05:07:31;;;;;;;107.67;37.37;;;;;;;2.31;62.94;98437.97;5073246;28;20494;-39
2022/03/15 05:12:45;;;;;;;118.13;42.60;;;;;;;3.33;60.83;98436.97;5072950;28;20415;-40
2022/03/15 05:15:13;;;;;;;95.83;39.43;;;;;;;3.68;59.35;98438.75;5073574;28;20448;-40
2022/03/15 05:17:40;;;;;;;74.83;34.13;;;;;;;4.06;57.62;98436.72;5073171;28;20509;-41
2022/03/15 05:20:10;;;;;;;85.73;36.70;;;;;;;4.49;56.28;98437.59;5073139;28;20447;-41
2022/03/15 05:22:37;;;;;;;77.00;37.10;;;;;;;4.94;55.57;98433.00;5073118;28;20440;-39
2022/03/15 05:25:06;;;;;;;79.53;39.50;;;;;;;5.31;54.95;98427.34;5073420;28;20447;-39
2022/03/15 05:27:34;;;;;;;68.50;32.43;;;;;;;5.72;53.66;98434.41;5073309;28;20497;-41
2022/03/15 05:30:04;;;;;;;54.30;27.20;;;;;;;6.13;51.41;98437.88;5073079;28;20524;-39
2022/03/15 05:32:31;;;;;;;55.20;27.30;;;;;;;6.37;50.81;98433.56;5073066;28;20451;-40
2022/03/15 05:34:59;;;;;;;152.63;57.47;;;;;;;6.57;50.27;98424.22;5073000;28;20478;-40
2022/03/15 05:37:26;;;;;;;135.97;55.07;;;;;;;6.55;51.05;98428.84;5072945;28;20451;-40
2022/03/15 05:39:54;;;;;;;79.50;37.33;;;;;;;6.53;51.27;98433.47;5072910;28;20444;-40
2022/03/15 05:42:21;;;;;;;91.60;41.10;;;;;;;6.29;51.46;98431.75;5072897;28;20454;-40
2022/03/15 05:44:49;;;;;;;72.27;33.23;;;;;;;6.41;50.96;98429.59;5072846;28;20440;-40
2022/03/15 05:47:18;;;;;;;70.07;33.60;;;;;;;6.55;49.99;98431.50;5072574;28;20502;-41
2022/03/15 05:49:45;;;;;;;66.20;35.03;;;;;;;6.59;49.73;98436.44;5073367;28;20448;-41
2022/03/15 05:52:12;;;;;;;53.37;28.00;;;;;;;6.72;49.15;98439.38;5073122;28;20443;-41
2022/03/15 05:54:40;;;;;;;73.67;33.43;;;;;;;6.86;48.97;98416.69;5073145;28;20466;-40
2022/03/15 05:57:07;;;;;;;95.67;46.87;;;;;;;7.13;48.10;98413.56;5072728;28;20535;-40
2022/03/15 05:59:34;;;;;;;100.70;40.63;;;;;;;7.41;47.87;98409.59;5073132;28;20486;-40
2022/03/15 06:02:02;;;;;;;49.93;26.60;;;;;;;7.86;46.79;98426.41;5072997;28;20931;-39
2022/03/15 06:04:30;;;;;;;44.10;25.20;;;;;;;8.08;46.97;98438.75;5073163;28;20465;-39
2022/03/15 06:06:57;;;;;;;47.03;26.20;;;;;;;8.35;47.32;98431.22;5072587;28;20537;-39
2022/03/15 06:09:25;;;;;;;40.50;25.07;;;;;;;8.55;46.18;98434.19;5073000;28;20444;-39
2022/03/15 06:11:54;;;;;;;42.83;22.50;;;;;;;8.56;46.12;98438.44;5073082;28;20444;-39
2022/03/15 06:14:21;;;;;;;47.90;21.33;;;;;;;8.48;46.54;98439.38;5072628;28;20459;-39
2022/03/15 06:16:48;;;;;;;41.43;21.83;;;;;;;8.33;47.05;98441.19;5072680;28;20528;-39
2022/03/15 06:19:16;;;;;;;55.00;22.17;;;;;;;8.34;47.10;98440.16;5072599;28;20440;-39
2022/03/15 06:21:45;;;;;;;33.10;19.00;;;;;;;8.29;47.69;98443.34;5072875;28;20450;-38
2022/03/15 06:24:12;;;;;;;50.03;21.60;;;;;;;8.35;47.61;98461.16;5074723;28;20443;-38
2022/03/15 06:26:41;;;;;;;47.90;24.90;;;;;;;8.24;47.10;98455.47;5076056;28;20479;-38
2022/03/15 06:29:08;;;;;;;81.10;39.63;;;;;;;8.29;47.02;98450.47;5084088;28;20470;-38
2022/03/15 06:31:37;;;;;;;60.70;31.50;;;;;;;8.31;47.17;98464.34;5096096;28;20439;-38
2022/03/15 06:34:06;;;;;;;43.17;20.17;;;;;;;8.36;48.18;98452.19;5095464;28;20447;-38
2022/03/15 06:36:35;;;;;;;30.10;15.23;;;;;;;8.21;49.07;98465.41;5097083;28;20443;-38
2022/03/15 06:39:05;;;;;;;33.10;15.77;;;;;;;8.23;49.43;98448.56;5095378;28;20946;-38
2022/03/15 06:41:34;;;;;;;20.87;8.90;;;;;;;8.33;49.64;98467.63;5096204;28;20442;-38
2022/03/15 06:44:01;;;;;;;14.50;7.90;;;;;;;8.53;48.57;98460.81;5096381;28;20443;-38
2022/03/15 06:46:30;;;;;;;15.03;9.47;;;;;;;8.82;48.66;98460.00;5096049;28;20501;-38
2022/03/15 06:48:57;;;;;;;20.17;8.30;;;;;;;9.23;47.11;98448.88;5096073;28;20453;-38
2022/03/15 06:51:25;;;;;;;16.43;8.97;;;;;;;9.45;46.75;98464.81;5095997;28;20450;-39
2022/03/15 06:53:52;;;;;;;21.37;9.77;;;;;;;9.64;46.05;98461.53;5096105;28;20439;-39
2022/03/15 06:56:21;;;;;;;25.37;13.33;;;;;;;9.88;46.27;98463.97;5095895;28;20447;-38
2022/03/15 06:58:52;;;;;;;36.20;15.00;;;;;;;10.00;46.15;98465.09;5095826;28;20541;-38
2022/03/15 07:01:19;;;;;;;30.33;15.30;;;;;;;9.90;44.82;98467.28;5096023;28;20435;-39
2022/03/15 07:03:46;;;;;;;35.37;16.03;;;;;;;9.89;42.98;98452.34;5095733;28;20927;-38
2022/03/15 07:06:14;;;;;;;33.47;15.73;;;;;;;10.14;42.64;98474.81;5096458;28;20483;-38
2022/03/15 07:08:41;;;;;;;29.57;14.73;;;;;;;10.20;42.76;98466.06;5095655;28;20942;-38
2022/03/15 07:11:08;;;;;;;23.27;11.70;;;;;;;10.19;42.63;98458.31;5095634;28;20821;-38
2022/03/15 07:13:37;;;;;;;18.10;12.00;;;;;;;10.21;43.15;98473.00;5095579;28;20453;-39
2022/03/15 07:16:05;;;;;;;22.73;12.77;;;;;;;10.27;42.50;98465.31;5095513;28;20445;-38
2022/03/15 07:18:32;;;;;;;48.33;23.60;;;;;;;10.19;39.77;98461.75;5095792;28;20447;-38
2022/03/15 07:20:59;;;;;;;48.50;20.80;;;;;;;10.17;39.77;98455.00;5095722;28;20825;-38
2022/03/15 07:23:27;;;;;;;42.33;17.77;;;;;;;10.20;40.26;98455.47;5095397;28;20446;-38
2022/03/15 07:25:54;;;;;;;37.03;18.30;;;;;;;10.39;39.59;98458.47;5095227;28;20858;-38
2022/03/15 07:28:21;;;;;;;37.83;15.13;;;;;;;10.60;40.10;98461.06;5095608;28;20446;-38
2022/03/15 07:30:50;;;;;;;27.80;12.93;;;;;;;10.74;39.85;98451.31;5095209;28;20449;-38
2022/03/15 07:33:17;;;;;;;20.27;12.27;;;;;;;10.73;40.71;98451.50;5095239;28;20534;-39
2022/03/15 07:35:44;;;;;;;19.40;10.30;;;;;;;10.83;39.79;98465.25;5094915;28;20829;-38
2022/03/15 07:38:16;;;;;;;13.13;8.67;;;;;;;10.88;40.03;98467.31;5095035;28;20446;-38
2022/03/15 07:40:44;;;;;;;17.30;9.60;;;;;;;10.82;40.10;98459.13;5095015;28;20785;-38
2022/03/15 07:43:11;;;;;;;12.50;7.70;;;;;;;10.99;39.49;98450.81;5095000;28;20985;-38
2022/03/15 07:45:38;;;;;;;13.97;6.83;;;;;;;11.16;40.35;98465.38;5094806;28;21020;-38
2022/03/15 07:48:07;;;;;;;10.40;4.27;;;;;;;11.10;39.99;98460.06;5094753;28;20928;-38
2022/03/15 07:50:35;;;;;;;10.80;7.33;;;;;;;10.90;40.79;98458.13;5094954;28;20443;-38
2022/03/15 07:53:03;;;;;;;9.73;6.40;;;;;;;10.93;40.03;98470.22;5094942;28;20446;-38
2022/03/15 07:55:30;;;;;;;13.30;6.50;;;;;;;10.87;40.39;98471.81;5094719;28;20447;-39
2022/03/15 07:57:57;;;;;;;12.00;5.90;;;;;;;11.07;40.21;98467.41;5095548;28;20443;-38
2022/03/15 08:00:25;;;;;;;12.20;5.87;;;;;;;11.27;40.21;98471.97;5094736;28;20443;-38
2022/03/15 08:02:52;;;;;;;7.00;4.90;;;;;;;11.38;39.55;98468.75;5094615;28;20443;-38
2022/03/15 08:05:22;;;;;;;10.10;6.30;;;;;;;11.38;38.39;98463.44;5094807;28;20952;-38
2022/03/15 08:07:49;;;;;;;17.07;8.70;;;;;;;11.46;38.36;98463.25;5094989;28;20877;-38
2022/03/15 08:10:17;;;;;;;14.30;7.87;;;;;;;11.72;39.38;98469.63;5094424;28;20446;-38
2022/03/15 08:12:44;;;;;;;7.40;6.23;;;;;;;11.82;37.50;98462.06;5094374;28;20443;-38
2022/03/15 08:15:12;;;;;;;20.90;9.70;;;;;;;11.68;37.68;98460.44;5094372;28;20927;-38
2022/03/15 08:17:40;;;;;;;8.90;6.50;;;;;;;11.82;37.33;98463.91;5094354;28;20537;-38
2022/03/15 08:20:08;;;;;;;8.13;6.77;;;;;;;11.79;36.49;98457.16;5094372;28;20443;-38
2022/03/15 08:22:37;;;;;;;7.90;5.60;;;;;;;12.09;35.90;98459.47;5094220;28;20447;-39
2022/03/15 08:25:05;;;;;;;25.37;12.37;;;;;;;12.43;36.62;98457.56;5094481;28;20477;-38
2022/03/15 08:27:32;;;;;;;13.87;7.23;;;;;;;12.73;35.41;98459.75;5094000;28;20501;-39
2022/03/15 08:30:00;;;;;;;13.60;7.63;;;;;;;12.71;34.19;98451.97;5086793;28;20459;-39
2022/03/15 08:32:27;;;;;;;10.50;6.60;;;;;;;12.76;33.96;98456.69;5078967;28;20480;-38
2022/03/15 08:34:55;;;;;;;15.47;7.97;;;;;;;12.77;34.34;98460.97;5073729;28;20440;-39
2022/03/15 08:37:22;;;;;;;23.30;12.70;;;;;;;12.61;32.19;98447.09;5073674;28;20450;-38
2022/03/15 08:39:51;;;;;;;14.73;7.87;;;;;;;12.58;33.64;98449.34;5073617;28;20447;-38
2022/03/15 08:42:18;;;;;;;14.90;7.23;;;;;;;12.82;33.99;98450.50;5074018;28;20443;-39
2022/03/15 08:44:45;;;;;;;11.87;7.73;;;;;;;12.90;34.72;98444.94;5073549;28;20444;-38
2022/03/15 08:47:14;;;;;;;10.10;5.97;;;;;;;12.82;30.69;98437.16;5090439;28;20503;-38
2022/03/15 08:49:43;;;;;;;12.13;7.37;;;;;;;12.92;34.28;98437.56;5094690;28;20469;-38
2022/03/15 08:52:11;;;;;;;10.00;7.40;;;;;;;13.04;32.47;98443.06;5093704;28;20942;-38
2022/03/15 08:54:39;;;;;;;11.93;7.70;;;;;;;13.23;33.61;98433.34;5093712;28;20534;-38
2022/03/15 08:57:08;;;;;;;12.60;7.97;;;;;;;13.14;30.96;98434.59;5093650;28;20445;-38
2022/03/15 08:59:36;;;;;;;19.10;8.03;;;;;;;13.24;31.91;98437.63;5093662;28;20443;-38
2022/03/15 09:02:04;;;;;;;11.60;5.90;;;;;;;13.48;32.01;98431.53;5093613;28;20926;-38
2022/03/15 09:07:12;;;;;;;50.43;26.47;;;;;;;13.81;31.92;98414.50;5092975;28;20911;-41
2022/03/15 09:09:44;;;;;;;17.77;9.10;;;;;;;14.04;31.44;98423.75;5093497;28;20942;-41
2022/03/15 09:15:25;;;;;;;9.73;6.00;;;;;;;13.68;31.68;98414.59;5093208;28;20427;-38
2022/03/15 09:17:52;;;;;;;12.10;7.30;;;;;;;13.73;31.88;98406.75;5092985;28;20438;-39
2022/03/15 09:20:20;;;;;;;17.13;8.73;;;;;;;13.83;30.91;98417.78;5092765;28;20451;-38
2022/03/15 09:22:47;;;;;;;27.13;12.13;;;;;;;13.69;30.53;98406.38;5094041;28;20471;-38
2022/03/15 09:25:15;;;;;;;10.80;7.63;;;;;;;13.55;31.75;98409.34;5093452;28;20471;-38
2022/03/15 09:27:42;;;;;;;5.13;4.53;;;;;;;13.45;31.70;98402.66;5093687;28;20490;-38
2022/03/15 09:30:10;;;;;;;10.93;6.30;;;;;;;13.58;32.16;98398.25;5094251;28;20449;-38
2022/03/15 09:32:42;;;;;;;8.73;5.73;;;;;;;13.70;31.02;98392.00;5093291;28;20445;-38
2022/03/15 09:35:10;;;;;;;18.10;8.00;;;;;;;13.85;31.11;98391.69;5093689;28;20435;-38
2022/03/15 09:37:38;;;;;;;6.57;4.80;;;;;;;13.74;30.09;98389.69;5093281;28;20435;-39
2022/03/15 09:40:09;;;;;;;7.20;5.80;;;;;;;13.65;31.01;98383.81;5093637;28;20439;-38
2022/03/15 09:42:38;;;;;;;9.47;5.97;;;;;;;13.57;30.99;98381.41;5093597;28;20882;-38
2022/03/15 09:45:29;;;;;;;10.13;6.40;;;;;;;13.62;31.22;98383.44;5093425;28;20450;-39
2022/03/15 09:48:01;;;;;;;6.83;5.00;;;;;;;13.73;29.12;98374.72;5093407;28;20544;-39
2022/03/15 09:50:28;;;;;;;4.87;3.70;;;;;;;13.65;29.59;98375.00;5093455;28;20427;-47
2022/03/15 09:52:58;;;;;;;5.73;4.53;;;;;;;13.72;30.76;98376.59;5093473;28;20505;-38
2022/03/15 09:55:26;;;;;;;7.20;5.77;;;;;;;13.76;29.80;98362.78;5093460;28;20451;-39
2022/03/15 09:57:53;;;;;;;11.00;6.37;;;;;;;13.79;30.69;98368.53;5095343;28;20470;-39
2022/03/15 10:00:21;;;;;;;6.73;5.00;;;;;;;13.79;30.62;98363.19;5097335;28;20454;-38
2022/03/15 10:02:48;;;;;;;4.03;3.53;;;;;;;13.71;29.81;98355.44;5096986;28;20958;-38
2022/03/15 10:05:17;;;;;;;11.57;4.93;;;;;;;13.42;29.26;98355.06;5096856;28;20439;-39
2022/03/15 10:07:44;;;;;;;6.10;5.40;;;;;;;13.63;29.48;98353.03;5097116;28;20896;-38
2022/03/15 10:10:14;;;;;;;4.77;4.20;;;;;;;13.83;29.29;98343.03;5097111;28;20521;-39
2022/03/15 10:12:42;;;;;;;13.63;6.57;;;;;;;14.03;29.49;98344.69;5097094;28;20496;-38
2022/03/15 10:15:14;;;;;;;11.47;4.63;;;;;;;14.18;30.49;98339.81;5096655;28;20442;-38
2022/03/15 10:17:47;;;;;;;9.67;4.27;;;;;;;14.32;29.20;98341.28;5096636;28;20446;-38
2022/03/15 10:20:18;;;;;;;14.30;5.17;;;;;;;14.31;27.70;98338.84;5096641;28;20439;-38
2022/03/15 10:22:54;;;;;;;10.80;7.13;;;;;;;14.18;27.46;98334.47;5096620;28;20436;-38
2022/03/15 10:25:23;;;;;;;8.40;5.80;;;;;;;14.24;27.77;98330.06;5096678;28;20442;-39
2022/03/15 10:27:54;;;;;;;27.03;12.20;;;;;;;14.24;27.29;98322.91;5096562;28;20579;-38
2022/03/15 10:30:23;;;;;;;9.00;5.83;;;;;;;14.23;28.25;98313.25;5096703;28;20450;-38
2022/03/15 10:32:51;;;;;;;9.40;5.30;;;;;;;14.31;29.00;98310.28;5096633;28;20519;-38
2022/03/15 10:35:22;;;;;;;6.60;4.60;;;;;;;14.34;29.43;98301.78;5096582;28;20492;-39
2022/03/15 10:37:50;;;;;;;14.00;6.80;;;;;;;14.38;29.09;98296.84;5096569;28;20822;-39
2022/03/15 10:40:18;;;;;;;10.93;5.27;;;;;;;14.49;29.71;98304.09;5096478;28;20439;-39
2022/03/15 10:42:47;;;;;;;6.33;4.40;;;;;;;14.58;29.55;98301.16;5096102;28;20450;-38
2022/03/15 10:45:19;;;;;;;5.03;4.23;;;;;;;14.56;28.67;98293.34;5096959;28;20522;-38
2022/03/15 10:47:53;;;;;;;6.90;5.23;;;;;;;14.58;27.27;98285.91;5096158;28;20520;-38
2022/03/15 10:50:24;;;;;;;6.70;4.60;;;;;;;14.07;25.98;98279.13;5096381;28;20449;-38
2022/03/15 10:52:53;;;;;;;14.00;9.07;;;;;;;14.08;27.63;98275.41;5096444;28;20423;-38
2022/03/15 10:55:24;;;;;;;10.60;5.73;;;;;;;14.30;28.12;98273.94;5096274;28;20518;-38
2022/03/15 10:57:54;;;;;;;6.53;4.90;;;;;;;14.51;29.64;98275.28;5096248;28;20443;-38
2022/03/15 11:00:25;;;;;;;11.40;4.87;;;;;;;14.55;27.25;98278.38;5095889;28;20439;-38
2022/03/15 11:02:54;;;;;;;7.77;4.30;;;;;;;14.39;25.33;98265.59;5087321;28;20824;-40
2022/03/15 11:05:30;;;;;;;5.13;3.97;;;;;;;14.43;26.14;98261.41;5081739;28;20448;-39
2022/03/15 11:07:59;;;;;;;5.87;3.63;;;;;;;14.49;26.75;98261.34;5073969;28;20883;-39
2022/03/15 11:10:26;;;;;;;21.60;12.20;;;;;;;14.48;27.14;98258.91;5074230;28;20801;-39
2022/03/15 11:12:58;;;;;;;15.63;10.17;;;;;;;14.46;27.49;98252.97;5074576;28;20928;-38
2022/03/15 11:15:30;;;;;;;5.80;3.83;;;;;;;14.54;26.92;98247.31;5075585;28;20531;-38
2022/03/15 11:18:02;;;;;;;7.67;3.60;;;;;;;14.37;25.04;98236.44;5075291;28;20907;-39
2022/03/15 11:20:35;;;;;;;9.47;5.43;;;;;;;14.37;26.79;98230.25;5075218;28;20428;-38
2022/03/15 11:23:04;;;;;;;14.47;11.07;;;;;;;14.37;27.07;98230.25;5075493;28;20420;-38
2022/03/15 11:25:36;;;;;;;9.10;6.80;;;;;;;14.38;26.35;98222.03;5075060;28;20458;-38
2022/03/15 11:28:06;;;;;;;5.67;4.90;;;;;;;14.49;27.72;98220.44;5075369;28;20888;-38
2022/03/15 11:30:33;;;;;;;12.60;7.17;;;;;;;14.48;27.50;98224.16;5075011;28;20439;-38
2022/03/15 11:33:04;;;;;;;6.17;3.90;;;;;;;14.49;26.10;98202.53;5074975;28;20519;-38
2022/03/15 11:35:34;;;;;;;3.83;3.20;;;;;;;14.65;25.39;98217.16;5075492;28;20440;-39
2022/03/15 11:38:04;;;;;;;13.00;7.53;;;;;;;14.55;25.19;98211.56;5074895;28;20443;-38